Time;durP1;ratioP1;P1;durP2;ratioP2;P2;SDS_P1;SDS_P2;PMS_P1;PMS_P2;Temp;Humidity;BMP_temperature;BMP_pressure;BME280_temperature;BME280_humidity;BME280_pressure;Samples;Min_cycle;Max_cycle;Signal;HPM_P1;HPM_P2
2021/07/27 00:01:36;;;;;;;2.20;1.97;;;;;;;20.25;66.07;100346.78;5054087;28;20276;-79
2021/07/27 00:04:02;;;;;;;2.67;1.87;;;;;;;20.22;65.69;100347.13;5055387;28;20211;-80
2021/07/27 00:06:29;;;;;;;2.83;1.90;;;;;;;20.20;65.28;100341.03;5050317;28;20231;-79
2021/07/27 00:08:55;;;;;;;2.47;1.90;;;;;;;20.20;65.10;100341.03;5048725;28;20235;-79
2021/07/27 00:11:22;;;;;;;3.60;2.00;;;;;;;20.22;64.79;100347.13;5051562;28;20204;-79
2021/07/27 00:13:50;;;;;;;2.77;2.07;;;;;;;20.24;64.48;100345.13;5048391;28;20587;-79
2021/07/27 00:16:16;;;;;;;2.27;2.07;;;;;;;20.27;64.31;100337.47;5049816;28;20236;-79
2021/07/27 00:18:43;;;;;;;2.50;2.20;;;;;;;20.30;64.34;100347.13;5048637;28;20200;-79
2021/07/27 00:21:09;;;;;;;4.43;2.53;;;;;;;20.34;64.05;100345.78;5046031;28;20343;-79
2021/07/27 00:23:37;;;;;;;4.27;2.27;;;;;;;20.37;63.90;100346.34;5053614;28;20209;-78
2021/07/27 00:26:05;;;;;;;1.97;1.77;;;;;;;20.41;63.84;100353.09;5053470;28;20444;-79
2021/07/27 00:28:32;;;;;;;6.13;2.00;;;;;;;20.42;63.76;100346.66;5047416;28;20258;-79
2021/07/27 00:31:00;;;;;;;2.90;2.33;;;;;;;20.45;63.83;100345.47;5052733;28;20303;-79
2021/07/27 00:33:26;;;;;;;3.83;2.00;;;;;;;20.47;63.53;100348.03;5041130;28;20205;-79
2021/07/27 00:35:53;;;;;;;1.90;1.70;;;;;;;20.47;63.52;100343.47;5050433;28;20220;-78
2021/07/27 00:38:21;;;;;;;2.27;2.00;;;;;;;20.48;63.56;100341.59;5044838;28;20204;-79
2021/07/27 00:40:48;;;;;;;4.27;2.03;;;;;;;20.49;63.64;100340.59;5048540;28;20231;-78
2021/07/27 00:43:16;;;;;;;2.47;2.00;;;;;;;20.48;63.59;100337.03;5050140;28;20596;-79
2021/07/27 00:45:42;;;;;;;2.53;1.87;;;;;;;20.48;63.52;100338.88;5044282;28;20244;-79
2021/07/27 00:48:11;;;;;;;2.30;2.10;;;;;;;20.46;63.80;100341.75;5045064;28;20205;-79
2021/07/27 00:50:38;;;;;;;2.77;2.00;;;;;;;20.45;63.67;100340.06;5043969;28;20241;-79
2021/07/27 00:53:06;;;;;;;3.63;2.40;;;;;;;20.43;63.84;100339.38;5048017;28;21262;-79
2021/07/27 00:55:34;;;;;;;2.63;1.83;;;;;;;20.41;63.90;100341.44;5045143;28;20345;-78
2021/07/27 00:58:01;;;;;;;2.20;1.97;;;;;;;20.39;64.19;100341.59;5045831;28;20201;-79
2021/07/27 01:00:29;;;;;;;3.73;2.30;;;;;;;20.37;64.39;100348.19;5046560;28;20578;-79
2021/07/27 01:02:55;;;;;;;2.87;2.13;;;;;;;20.34;64.43;100340.38;5046044;28;20210;-79
2021/07/27 01:05:26;;;;;;;3.17;1.90;;;;;;;20.31;64.45;100338.84;5048907;28;20243;-79
2021/07/27 01:07:53;;;;;;;8.73;1.97;;;;;;;20.31;64.53;100354.22;5045509;28;20208;-79
2021/07/27 01:10:20;;;;;;;3.13;2.23;;;;;;;20.27;64.63;100347.44;5048766;28;20637;-79
2021/07/27 01:12:47;;;;;;;2.60;1.90;;;;;;;20.25;64.66;100338.66;5051501;28;20200;-79
2021/07/27 01:15:14;;;;;;;4.60;1.90;;;;;;;20.22;64.73;100344.44;5050964;28;20207;-79
2021/07/27 01:17:41;;;;;;;4.63;2.17;;;;;;;20.21;64.87;100345.44;5049522;28;20296;-79
2021/07/27 01:20:15;;;;;;;2.03;1.83;;;;;;;20.19;64.96;100352.88;5050047;28;20223;-79
2021/07/27 01:39:25;;;;;;;3.73;2.47;;;;;;;19.97;65.57;100357.03;5043681;28;20209;-78
2021/07/27 01:42:07;;;;;;;2.40;2.20;;;;;;;19.95;66.17;100346.38;5045944;28;20258;-79
2021/07/27 01:44:34;;;;;;;3.90;2.50;;;;;;;19.91;66.28;100353.13;5048939;28;20199;-79
2021/07/27 01:47:01;;;;;;;2.90;2.43;;;;;;;19.90;66.54;100345.16;5047008;28;20225;-79
2021/07/27 01:49:27;;;;;;;5.07;2.10;;;;;;;19.88;66.72;100347.22;5043271;28;20224;-79
2021/07/27 01:51:54;;;;;;;2.57;2.37;;;;;;;19.84;66.73;100345.84;5053222;28;20285;-79
2021/07/27 01:54:30;;;;;;;4.57;2.50;;;;;;;19.82;67.03;100342.47;5050189;28;20297;-79
2021/07/27 01:56:57;;;;;;;2.93;2.17;;;;;;;19.81;67.29;100346.19;5047421;28;20592;-79
2021/07/27 01:59:24;;;;;;;3.97;2.73;;;;;;;19.77;67.34;100342.94;5051377;28;20583;-78
2021/07/27 02:01:50;;;;;;;2.93;2.33;;;;;;;19.76;67.53;100343.94;5052807;28;20208;-78
2021/07/27 02:04:17;;;;;;;2.50;2.30;;;;;;;19.75;67.72;100345.81;5045418;28;20202;-79
2021/07/27 02:06:43;;;;;;;6.30;2.73;;;;;;;19.75;67.97;100362.03;5045491;28;20229;-79
2021/07/27 02:09:10;;;;;;;3.13;2.60;;;;;;;19.73;67.85;100349.69;5042705;28;20203;-79
2021/07/27 02:11:40;;;;;;;3.37;2.60;;;;;;;19.72;67.87;100348.84;5049449;28;20254;-79
2021/07/27 02:14:07;;;;;;;2.63;2.37;;;;;;;19.72;68.25;100354.25;5047327;28;20572;-79
2021/07/27 02:16:36;;;;;;;5.43;2.80;;;;;;;19.72;68.18;100348.00;5047990;28;20291;-79
2021/07/27 02:19:03;;;;;;;3.33;2.90;;;;;;;19.71;68.28;100351.69;5052137;28;20203;-78
2021/07/27 02:21:29;;;;;;;3.10;2.50;;;;;;;19.69;68.36;100348.34;5044923;28;20212;-79
2021/07/27 02:23:56;;;;;;;5.43;2.87;;;;;;;19.68;68.53;100341.25;5050074;28;20199;-79
2021/07/27 02:26:22;;;;;;;3.57;2.70;;;;;;;19.66;68.49;100346.81;5046449;28;20232;-79
2021/07/27 02:28:50;;;;;;;3.07;2.43;;;;;;;19.63;68.81;100349.81;5046510;28;20562;-79
2021/07/27 02:31:22;;;;;;;4.53;2.97;;;;;;;19.61;68.74;100351.00;5043381;28;20600;-79
2021/07/27 02:33:48;;;;;;;3.77;3.17;;;;;;;19.59;68.81;100351.16;5047258;28;20661;-78
2021/07/27 02:36:15;;;;;;;5.43;3.13;;;;;;;19.57;68.82;100355.88;5047556;28;20226;-79
2021/07/27 02:38:41;;;;;;;3.97;2.80;;;;;;;19.54;68.99;100356.19;5047343;28;20272;-79
2021/07/27 02:41:08;;;;;;;3.50;3.00;;;;;;;19.51;68.93;100353.00;5055413;28;20209;-79
2021/07/27 02:43:34;;;;;;;4.60;3.00;;;;;;;19.48;69.03;100362.22;5054035;28;20214;-79
2021/07/27 02:46:02;;;;;;;3.30;3.00;;;;;;;19.45;69.29;100359.84;5049443;28;20222;-79
2021/07/27 02:48:28;;;;;;;5.00;3.10;;;;;;;19.43;69.01;100365.41;5047023;28;20205;-78
2021/07/27 02:51:02;;;;;;;4.67;3.07;;;;;;;19.42;69.41;100363.72;5058707;28;20592;-79
2021/07/27 02:53:30;;;;;;;3.47;3.17;;;;;;;19.42;69.45;100362.84;5053688;28;20211;-79
2021/07/27 02:55:58;;;;;;;4.13;3.23;;;;;;;19.41;69.61;100366.56;5053276;28;20229;-78
2021/07/27 02:58:30;;;;;;;4.33;3.30;;;;;;;19.39;69.51;100364.03;5052697;28;20257;-78
2021/07/27 03:00:56;;;;;;;3.87;3.53;;;;;;;19.41;69.67;100366.56;5052515;28;20218;-78
2021/07/27 03:03:24;;;;;;;4.83;3.73;;;;;;;19.41;69.75;100369.25;5052100;28;20208;-79
2021/07/27 03:05:55;;;;;;;3.17;2.87;;;;;;;19.40;69.66;100359.47;5055345;28;20233;-79
2021/07/27 03:08:23;;;;;;;4.80;3.20;;;;;;;19.39;69.71;100364.03;5046370;28;20215;-78
2021/07/27 03:10:49;;;;;;;6.50;3.27;;;;;;;19.40;69.81;100364.88;5049059;28;20238;-78
2021/07/27 03:13:16;;;;;;;3.30;2.97;;;;;;;19.40;69.87;100370.28;5045867;28;20208;-79
2021/07/27 03:15:42;;;;;;;4.90;3.73;;;;;;;19.40;69.76;100363.00;5047335;28;20302;-78
2021/07/27 03:18:09;;;;;;;4.43;3.47;;;;;;;19.41;69.66;100371.97;5052137;28;20211;-78
2021/07/27 03:20:37;;;;;;;4.43;3.20;;;;;;;19.41;69.75;100372.81;5048086;28;20213;-78
2021/07/27 03:23:04;;;;;;;4.63;3.43;;;;;;;19.41;69.74;100374.66;5052900;28;20216;-79
2021/07/27 03:25:30;;;;;;;5.33;3.30;;;;;;;19.39;69.84;100382.94;5052061;28;20230;-80
2021/07/27 03:27:57;;;;;;;3.70;3.33;;;;;;;19.39;69.73;100382.94;5053482;28;20298;-80
2021/07/27 03:30:24;;;;;;;4.57;3.60;;;;;;;19.40;69.71;100389.16;5064165;28;20687;-79
2021/07/27 03:32:51;;;;;;;4.77;3.07;;;;;;;19.40;69.76;100390.03;5053749;28;20203;-80
2021/07/27 03:35:18;;;;;;;4.10;3.70;;;;;;;19.39;69.91;100385.63;5052186;28;20220;-79
2021/07/27 03:37:46;;;;;;;3.87;3.43;;;;;;;19.40;69.63;100378.38;5058455;28;20677;-80
2021/07/27 03:40:14;;;;;;;4.30;3.40;;;;;;;19.39;69.83;100385.63;5046545;28;20296;-79
2021/07/27 03:42:40;;;;;;;3.70;3.40;;;;;;;19.38;69.83;100388.47;5053306;28;20297;-80
2021/07/27 03:45:08;;;;;;;5.83;3.80;;;;;;;19.37;69.71;100386.78;5062141;28;20206;-80
2021/07/27 03:47:34;;;;;;;5.10;3.90;;;;;;;19.36;69.76;100390.50;5062865;28;20670;-80
2021/07/27 03:50:01;;;;;;;5.37;3.43;;;;;;;19.35;69.82;100395.03;5057420;28;20223;-80
2021/07/27 03:52:27;;;;;;;5.27;3.50;;;;;;;19.33;69.68;100389.00;5056114;28;20238;-80
2021/07/27 03:54:55;;;;;;;5.97;3.50;;;;;;;19.33;69.73;100391.69;5052640;28;20202;-80
2021/07/27 03:57:21;;;;;;;4.27;3.70;;;;;;;19.32;69.98;100402.66;5056399;28;20232;-79
2021/07/27 03:59:48;;;;;;;5.13;3.33;;;;;;;19.30;69.88;100404.66;5058895;28;20585;-79
2021/07/27 04:02:14;;;;;;;4.87;3.83;;;;;;;19.28;70.01;100409.38;5052635;28;20205;-80
2021/07/27 04:04:42;;;;;;;4.13;3.70;;;;;;;19.27;69.81;100403.13;5058723;28;20293;-80
2021/07/27 04:07:08;;;;;;;5.70;3.67;;;;;;;19.25;69.96;100410.53;5049524;28;20224;-80
2021/07/27 04:09:35;;;;;;;5.87;3.57;;;;;;;19.24;70.14;100402.56;5055648;28;20203;-80
2021/07/27 04:12:03;;;;;;;5.50;3.70;;;;;;;19.25;70.16;100412.38;5067238;28;20581;-80
2021/07/27 04:14:29;;;;;;;5.40;4.03;;;;;;;19.23;70.04;100406.28;5060816;28;20207;-80
2021/07/27 04:16:56;;;;;;;8.07;4.13;;;;;;;19.23;70.38;100414.38;5056328;28;20573;-80
2021/07/27 04:19:23;;;;;;;5.80;3.70;;;;;;;19.23;70.33;100411.69;5052386;28;20210;-80
2021/07/27 04:21:49;;;;;;;4.77;3.80;;;;;;;19.21;70.22;100411.00;5058426;28;20563;-81
2021/07/27 04:24:17;;;;;;;8.50;4.13;;;;;;;19.22;70.35;100410.84;5048753;28;20214;-80
2021/07/27 04:26:43;;;;;;;5.90;3.80;;;;;;;19.22;70.23;100410.84;5053832;28;20230;-80
2021/07/27 04:29:11;;;;;;;4.43;3.90;;;;;;;19.21;70.23;100414.53;5057087;28;20686;-80
2021/07/27 04:31:38;;;;;;;4.20;3.43;;;;;;;19.21;70.38;100409.13;5054300;28;20253;-80
2021/07/27 04:34:05;;;;;;;4.87;3.20;;;;;;;19.19;70.38;100415.69;5058061;28;20587;-80
2021/07/27 04:36:31;;;;;;;5.00;3.70;;;;;;;19.16;70.51;100422.28;5063750;28;20238;-81
2021/07/27 04:38:58;;;;;;;7.03;3.93;;;;;;;19.14;70.68;100418.03;5062505;28;20215;-80
2021/07/27 04:41:24;;;;;;;5.03;3.70;;;;;;;19.09;70.77;100423.91;5068228;28;20293;-80
2021/07/27 04:43:51;;;;;;;6.13;4.00;;;;;;;19.05;71.00;100415.28;5064416;28;20201;-80
2021/07/27 04:46:19;;;;;;;4.60;3.27;;;;;;;19.04;71.01;100412.72;5057676;28;20234;-80
2021/07/27 04:48:45;;;;;;;9.20;3.67;;;;;;;19.02;71.36;100414.72;5059433;28;20757;-81
2021/07/27 04:51:12;;;;;;;5.30;3.90;;;;;;;19.00;71.48;100412.19;5057341;28;20229;-80
2021/07/27 04:53:41;;;;;;;4.73;3.80;;;;;;;18.99;71.42;100413.19;5057427;28;20223;-81
2021/07/27 04:56:07;;;;;;;5.80;4.17;;;;;;;19.00;71.66;100416.75;5057213;28;20605;-80
2021/07/27 04:58:34;;;;;;;5.00;3.47;;;;;;;18.98;71.70;100411.53;5057255;28;20216;-80
2021/07/27 05:01:01;;;;;;;4.93;3.10;;;;;;;19.00;71.50;100403.25;5057627;28;20217;-80
2021/07/27 05:03:29;;;;;;;4.70;3.57;;;;;;;19.02;71.71;100415.59;5056824;28;20204;-80
2021/07/27 05:05:56;;;;;;;5.90;4.10;;;;;;;19.04;71.71;100412.72;5057615;28;20564;-80
2021/07/27 05:08:22;;;;;;;4.77;3.97;;;;;;;19.07;71.97;100425.91;5056672;28;20213;-80
2021/07/27 05:10:49;;;;;;;5.27;4.13;;;;;;;19.09;71.86;100418.50;5055722;28;20226;-80
2021/07/27 05:13:15;;;;;;;6.37;4.10;;;;;;;19.11;71.86;100424.59;5055572;28;20211;-80
2021/07/27 05:15:42;;;;;;;6.30;4.27;;;;;;;19.13;71.65;100422.59;5055491;28;20223;-80
2021/07/27 05:18:08;;;;;;;7.47;4.83;;;;;;;19.17;71.80;100405.06;5055732;28;20211;-80
2021/07/27 05:20:36;;;;;;;5.33;4.13;;;;;;;19.23;71.84;100407.13;5056446;28;20684;-81
2021/07/27 05:23:03;;;;;;;6.33;3.67;;;;;;;19.28;71.85;100412.91;5056790;28;20209;-80
2021/07/27 05:25:29;;;;;;;4.63;3.50;;;;;;;19.33;71.68;100412.44;5056865;28;20233;-80
2021/07/27 05:27:56;;;;;;;4.63;4.17;;;;;;;19.40;71.46;100414.31;5054998;28;20661;-81
2021/07/27 05:30:23;;;;;;;6.00;3.67;;;;;;;19.49;71.39;100414.38;5056446;28;20296;-80
2021/07/27 05:32:49;;;;;;;4.37;3.70;;;;;;;19.57;71.28;100401.78;5062762;28;20213;-80
2021/07/27 05:35:16;;;;;;;5.13;4.03;;;;;;;19.67;71.09;100415.19;5055807;28;20204;-81
2021/07/27 05:37:44;;;;;;;6.30;3.87;;;;;;;19.75;70.86;100404.41;5056424;28;20202;-80
2021/07/27 05:40:11;;;;;;;4.53;4.00;;;;;;;19.82;70.36;100401.91;5060673;28;20326;-80
2021/07/27 05:42:38;;;;;;;5.50;3.80;;;;;;;19.91;70.28;100403.63;5065614;28;20227;-81
2021/07/27 05:45:05;;;;;;;5.03;4.10;;;;;;;20.00;69.72;100398.09;5057613;28;20230;-81
2021/07/27 05:47:32;;;;;;;5.03;4.27;;;;;;;20.03;69.17;100403.19;5056522;28;20214;-81
2021/07/27 05:49:58;;;;;;;4.80;3.70;;;;;;;20.08;69.02;100410.78;5058238;28;20210;-81
2021/07/27 05:52:25;;;;;;;5.17;3.57;;;;;;;20.14;69.13;100410.13;5052741;28;20226;-81
2021/07/27 05:54:53;;;;;;;5.93;3.67;;;;;;;20.20;68.87;100408.63;5057508;28;20579;-81
2021/07/27 05:57:21;;;;;;;6.40;3.73;;;;;;;20.25;68.59;100409.81;5052258;28;20227;-81
2021/07/27 05:59:50;;;;;;;4.13;3.73;;;;;;;20.29;68.48;100410.34;5053673;28;20259;-82
2021/07/27 06:02:20;;;;;;;4.20;3.57;;;;;;;20.31;68.43;100400.22;5045575;28;20208;-81
2021/07/27 06:04:47;;;;;;;4.37;3.97;;;;;;;20.35;68.10;100415.09;5053898;28;20281;-81
2021/07/27 06:07:13;;;;;;;3.80;3.43;;;;;;;20.39;68.25;100401.13;5049474;28;20579;-80
2021/07/27 06:09:40;;;;;;;4.33;3.67;;;;;;;20.46;68.27;100403.97;5049734;28;20215;-81
2021/07/27 06:12:12;;;;;;;4.27;3.70;;;;;;;20.55;68.10;100402.16;5051252;28;20234;-80
2021/07/27 06:14:41;;;;;;;4.93;3.77;;;;;;;20.64;67.66;100401.97;5053190;28;20213;-81
2021/07/27 06:17:11;;;;;;;4.40;3.67;;;;;;;20.78;67.66;100404.00;5052205;28;20231;-81
2021/07/27 06:19:40;;;;;;;4.67;3.80;;;;;;;20.93;67.33;100400.63;5046895;28;20208;-81
2021/07/27 06:22:08;;;;;;;5.23;4.10;;;;;;;21.07;66.95;100400.78;5055309;28;20203;-80
2021/07/27 06:24:35;;;;;;;5.03;4.00;;;;;;;21.23;66.59;100405.38;5046483;28;20210;-80
2021/07/27 06:27:02;;;;;;;4.67;4.20;;;;;;;21.38;66.11;100394.66;5051262;28;20222;-81
2021/07/27 06:29:30;;;;;;;5.10;4.20;;;;;;;21.51;65.53;100399.53;5046424;28;20594;-80
2021/07/27 06:31:57;;;;;;;4.83;3.80;;;;;;;21.65;65.35;100396.13;5055874;28;20231;-81
2021/07/27 06:34:23;;;;;;;6.13;4.80;;;;;;;21.72;64.38;100402.53;5039745;28;20663;-81
2021/07/27 06:36:50;;;;;;;4.30;3.90;;;;;;;21.82;64.13;100416.75;5050219;28;20246;-81
2021/07/27 06:39:17;;;;;;;4.45;3.83;;;;;;;21.92;63.57;100409.22;5053922;28;20651;-81
2021/07/27 06:41:43;;;;;;;4.97;3.77;;;;;;;22.01;63.38;100416.34;5055356;28;20209;-80
2021/07/27 06:44:13;;;;;;;5.57;4.57;;;;;;;22.09;62.82;100424.44;5048881;28;20660;-81
2021/07/27 06:46:41;;;;;;;5.07;4.40;;;;;;;22.19;62.12;100418.81;5049899;28;20304;-81
2021/07/27 06:49:07;;;;;;;5.47;4.20;;;;;;;22.24;61.68;100412.81;5056735;28;20207;-80
2021/07/27 06:51:34;;;;;;;4.60;4.15;;;;;;;22.30;61.76;100425.69;5048405;28;20230;-81
2021/07/27 06:54:00;;;;;;;4.68;4.05;;;;;;;22.38;61.51;100412.94;5050451;28;20209;-81
2021/07/27 06:56:27;;;;;;;4.90;4.20;;;;;;;22.45;61.24;100403.03;5052378;28;20734;-81
2021/07/27 06:58:53;;;;;;;5.40;3.72;;;;;;;22.54;61.17;100413.84;5051442;28;20209;-81
2021/07/27 07:01:20;;;;;;;5.50;4.35;;;;;;;22.64;60.99;100419.88;5048585;28;20210;-80
2021/07/27 07:03:48;;;;;;;4.78;4.20;;;;;;;22.72;61.34;100414.41;5042850;28;20213;-81
2021/07/27 07:06:16;;;;;;;5.50;4.18;;;;;;;22.82;60.74;100410.44;5045647;28;20232;-81
2021/07/27 07:08:42;;;;;;;6.30;4.38;;;;;;;22.90;60.37;100411.41;5045516;28;20667;-81
2021/07/27 07:11:10;;;;;;;5.20;4.20;;;;;;;22.95;59.85;100417.09;5057298;28;20290;-81
2021/07/27 07:13:37;;;;;;;4.78;4.38;;;;;;;23.03;60.00;100412.47;5053356;28;20288;-81
2021/07/27 07:16:08;;;;;;;5.20;4.70;;;;;;;23.17;60.14;100421.66;5059022;28;20716;-80
2021/07/27 07:18:34;;;;;;;5.63;5.05;;;;;;;23.31;59.03;100428.16;5054777;28;20682;-81
2021/07/27 07:21:07;;;;;;;6.68;6.00;;;;;;;23.39;58.69;100422.66;5047981;28;20198;-81
2021/07/27 07:23:34;;;;;;;5.75;5.25;;;;;;;23.45;58.04;100433.63;5051344;28;20202;-81
2021/07/27 07:26:04;;;;;;;5.70;5.20;;;;;;;23.52;57.86;100437.31;5049376;28;20220;-81
2021/07/27 07:28:31;;;;;;;5.68;5.18;;;;;;;23.53;56.85;100441.72;5057239;28;20682;-81
2021/07/27 07:30:57;;;;;;;5.45;4.95;;;;;;;23.52;56.75;100434.59;5060267;28;20233;-80
2021/07/27 07:33:24;;;;;;;6.05;5.45;;;;;;;23.51;56.50;100438.34;5076725;28;20227;-80
2021/07/27 07:35:50;;;;;;;6.32;5.38;;;;;;;23.50;56.58;100436.63;5070551;28;20215;-81
2021/07/27 07:38:18;;;;;;;6.55;5.88;;;;;;;23.51;56.83;100438.34;5066605;28;20214;-81
2021/07/27 07:40:45;;;;;;;6.32;5.65;;;;;;;23.51;56.79;100438.34;5062422;28;20292;-81
2021/07/27 07:43:12;;;;;;;5.72;5.22;;;;;;;23.53;56.66;100430.84;5066210;28;20212;-81
2021/07/27 07:45:38;;;;;;;5.40;4.90;;;;;;;23.57;56.65;100433.19;5053583;28;20228;-81
2021/07/27 07:48:05;;;;;;;6.95;5.70;;;;;;;23.68;57.35;100425.41;5056250;28;20676;-81
2021/07/27 07:50:32;;;;;;;5.75;5.25;;;;;;;23.79;56.74;100433.13;5046801;28;20201;-81
2021/07/27 07:52:59;;;;;;;5.03;4.63;;;;;;;23.92;56.42;100434.31;5048557;28;20221;-81
2021/07/27 07:55:27;;;;;;;4.63;4.28;;;;;;;24.04;55.60;100439.06;5052080;28;20235;-81
2021/07/27 07:57:54;;;;;;;4.72;4.32;;;;;;;24.13;55.31;100442.56;5051208;28;20202;-81
2021/07/27 08:00:22;;;;;;;5.35;4.85;;;;;;;24.22;55.13;100442.25;5046985;28;20225;-81
2021/07/27 08:02:49;;;;;;;4.88;4.47;;;;;;;24.33;55.45;100451.84;5052898;28;20285;-80
2021/07/27 08:05:16;;;;;;;4.88;4.47;;;;;;;24.39;54.41;100440.16;5051962;28;20209;-81
2021/07/27 08:07:42;;;;;;;4.72;4.13;;;;;;;24.45;53.85;100438.56;5047788;28;20228;-80
2021/07/27 08:10:10;;;;;;;4.43;4.03;;;;;;;24.52;53.89;100434.06;5047924;28;20207;-81
2021/07/27 08:12:38;;;;;;;4.43;4.00;;;;;;;24.64;53.89;100437.09;5057733;28;20323;-81
2021/07/27 08:15:06;;;;;;;5.50;4.00;;;;;;;24.74;53.28;100443.91;5058118;28;20571;-81
2021/07/27 08:17:32;;;;;;;4.95;4.00;;;;;;;24.79;52.38;100446.06;5051973;28;20201;-81
2021/07/27 08:19:59;;;;;;;3.58;3.28;;;;;;;24.75;51.80;100448.31;5056816;28;20204;-81
2021/07/27 08:22:26;;;;;;;4.53;4.13;;;;;;;24.67;51.43;100453.06;5051343;28;20240;-82
2021/07/27 08:24:52;;;;;;;4.53;4.13;;;;;;;24.63;51.79;100460.75;5052194;28;20216;-81
2021/07/27 08:27:19;;;;;;;4.50;4.10;;;;;;;24.63;52.07;100454.47;5054168;28;20233;-81
2021/07/27 08:29:47;;;;;;;4.60;4.10;;;;;;;24.70;52.41;100448.06;5055595;28;20219;-81
2021/07/27 08:32:13;;;;;;;5.03;4.50;;;;;;;24.77;51.42;100450.84;5053953;28;20230;-81
2021/07/27 08:34:42;;;;;;;4.53;4.13;;;;;;;24.79;51.11;100454.22;5055498;28;20219;-81
2021/07/27 08:37:09;;;;;;;4.78;4.38;;;;;;;24.85;51.43;100461.63;5048957;28;20272;-82
2021/07/27 08:39:35;;;;;;;4.70;4.30;;;;;;;24.95;50.75;100461.31;5047977;28;20209;-82
2021/07/27 08:42:03;;;;;;;4.90;4.50;;;;;;;25.11;51.56;100466.50;5052977;28;20205;-82
2021/07/27 08:44:31;;;;;;;5.35;4.28;;;;;;;25.22;50.81;100461.38;5050554;28;20206;-81
2021/07/27 08:47:01;;;;;;;4.95;4.20;;;;;;;25.29;50.21;100466.03;5058666;28;20231;-81
2021/07/27 08:49:29;;;;;;;4.40;4.00;;;;;;;25.30;50.44;100470.44;5049059;28;20216;-82
2021/07/27 08:51:56;;;;;;;5.55;4.50;;;;;;;25.30;50.47;100468.56;5044239;28;20221;-82
2021/07/27 08:54:22;;;;;;;5.10;4.60;;;;;;;25.29;49.90;100476.94;5048940;28;20200;-82
2021/07/27 08:56:50;;;;;;;5.32;4.82;;;;;;;25.25;49.99;100471.06;5056742;28;21716;-82
2021/07/27 08:59:17;;;;;;;4.68;4.28;;;;;;;25.23;50.47;100467.69;5056731;28;20205;-82
2021/07/27 09:01:45;;;;;;;6.35;4.40;;;;;;;25.19;50.49;100466.38;5051096;28;20209;-82
2021/07/27 09:04:13;;;;;;;5.88;5.22;;;;;;;25.13;50.60;100470.72;5054027;28;20218;-82
2021/07/27 09:06:40;;;;;;;6.03;5.53;;;;;;;25.13;51.09;100478.06;5055991;28;20281;-82
2021/07/27 09:09:08;;;;;;;5.53;5.03;;;;;;;25.10;51.12;100471.09;5059447;28;20197;-82
2021/07/27 09:11:44;;;;;;;5.50;5.00;;;;;;;25.09;50.96;100477.59;5066245;28;20238;-82
2021/07/27 09:14:14;;;;;;;4.85;4.43;;;;;;;25.09;50.65;100482.19;5043678;28;20206;-81
2021/07/27 09:16:43;;;;;;;4.50;4.10;;;;;;;25.05;50.32;100484.50;5054826;28;20240;-81
2021/07/27 09:19:10;;;;;;;5.13;4.57;;;;;;;25.02;50.22;100484.88;5054635;28;20211;-82
2021/07/27 09:21:40;;;;;;;5.57;5.07;;;;;;;25.04;50.36;100490.13;5058005;28;20212;-81
2021/07/27 09:24:07;;;;;;;5.32;4.90;;;;;;;25.07;50.78;100496.06;5061823;28;20288;-81
2021/07/27 09:26:33;;;;;;;5.88;4.68;;;;;;;25.13;50.82;100484.34;5054124;28;20229;-80
2021/07/27 09:29:04;;;;;;;5.55;4.93;;;;;;;25.22;50.39;100482.34;5049270;28;20197;-79
2021/07/27 09:31:30;;;;;;;5.20;4.70;;;;;;;25.27;50.01;100479.84;5047751;28;20209;-80
2021/07/27 09:33:57;;;;;;;5.05;4.60;;;;;;;25.28;49.54;100484.25;5042524;28;20213;-80
2021/07/27 09:36:25;;;;;;;5.50;5.00;;;;;;;25.25;49.37;100484.69;5052761;28;20229;-80
2021/07/27 09:39:02;;;;;;;5.40;4.78;;;;;;;25.22;49.08;100480.47;5053018;28;20204;-79
2021/07/27 09:41:29;;;;;;;5.13;4.63;;;;;;;25.21;49.22;100484.22;5056708;28;20207;-80
2021/07/27 09:43:56;;;;;;;4.75;4.35;;;;;;;25.25;49.64;100496.44;5058634;28;20212;-80
2021/07/27 09:46:24;;;;;;;5.75;4.90;;;;;;;25.31;49.51;100483.88;5056740;28;20231;-80
2021/07/27 09:48:52;;;;;;;5.70;4.72;;;;;;;25.42;49.18;100480.63;5051035;28;20217;-79
2021/07/27 09:51:19;;;;;;;5.30;4.80;;;;;;;25.51;49.27;100490.34;5047760;28;20214;-80
2021/07/27 09:53:46;;;;;;;5.28;4.88;;;;;;;25.60;49.36;100486.44;5048014;28;20217;-80
2021/07/27 09:56:14;;;;;;;5.30;4.90;;;;;;;25.68;48.62;100501.81;5046168;28;20217;-79
2021/07/27 09:58:41;;;;;;;5.70;5.10;;;;;;;25.72;48.55;100491.34;5042954;28;20212;-79
2021/07/27 10:01:10;;;;;;;6.50;5.80;;;;;;;25.76;48.47;100496.22;5041748;28;20223;-79
2021/07/27 10:03:46;;;;;;;7.93;6.10;;;;;;;25.72;48.05;100497.66;5053032;28;20205;-80
2021/07/27 10:06:22;;;;;;;6.07;5.47;;;;;;;25.70;48.94;100496.16;5045709;28;20221;-80
2021/07/27 10:08:54;;;;;;;6.20;5.60;;;;;;;25.65;47.90;100499.47;5046880;28;20208;-80
2021/07/27 10:11:35;;;;;;;5.82;5.32;;;;;;;25.56;48.27;100504.22;5047214;28;20227;-80
2021/07/27 10:14:06;;;;;;;5.88;5.38;;;;;;;25.53;48.82;100499.16;5045607;28;20248;-80
2021/07/27 10:16:33;;;;;;;6.95;6.28;;;;;;;25.50;49.29;100485.91;5050169;28;20677;-80
2021/07/27 10:19:11;;;;;;;5.95;5.45;;;;;;;25.52;49.27;100488.44;5037874;28;20202;-80
2021/07/27 10:21:38;;;;;;;6.63;5.60;;;;;;;25.59;49.18;100484.75;5047663;28;20213;-80
2021/07/27 10:24:12;;;;;;;5.68;5.18;;;;;;;25.67;48.91;100480.19;5044327;28;20208;-80
2021/07/27 10:26:41;;;;;;;7.18;6.47;;;;;;;25.71;49.22;100478.75;5050198;28;20356;-80
2021/07/27 10:29:08;;;;;;;5.75;5.25;;;;;;;25.82;49.17;100475.47;5044245;28;20206;-80
2021/07/27 10:31:36;;;;;;;5.57;5.07;;;;;;;25.94;49.03;100487.53;5046042;28;20752;-80
2021/07/27 10:34:04;;;;;;;6.40;5.80;;;;;;;26.08;48.69;100482.97;5041114;28;20240;-80
2021/07/27 10:36:33;;;;;;;6.97;5.75;;;;;;;26.17;48.01;100471.66;5042381;28;20226;-80
2021/07/27 10:39:11;;;;;;;5.95;5.38;;;;;;;26.23;47.92;100480.94;5044533;28;20624;-80
2021/07/27 10:41:41;;;;;;;5.60;5.10;;;;;;;26.32;48.00;100478.94;5046909;28;20209;-79
2021/07/27 10:44:10;;;;;;;5.93;5.43;;;;;;;26.45;47.08;100479.81;5047581;28;20205;-80
2021/07/27 10:46:45;;;;;;;5.30;4.72;;;;;;;26.46;46.22;100472.47;5053570;28;20221;-80
2021/07/27 10:49:17;;;;;;;5.72;5.15;;;;;;;26.42;45.53;100480.22;5049037;28;20215;-80
2021/07/27 10:51:45;;;;;;;5.15;4.75;;;;;;;26.39;45.30;100480.63;5047499;28;20208;-79
2021/07/27 10:54:13;;;;;;;5.88;5.38;;;;;;;26.35;45.50;100475.78;5050204;28;20652;-80
2021/07/27 10:56:48;;;;;;;5.50;5.00;;;;;;;26.30;45.20;100470.94;5048113;28;20232;-80
2021/07/27 10:59:20;;;;;;;6.82;5.50;;;;;;;26.32;45.73;100463.41;5055162;28;20575;-79
2021/07/27 11:01:46;;;;;;;5.38;4.90;;;;;;;26.38;45.75;100462.56;5057800;28;20197;-79
2021/07/27 11:04:15;;;;;;;5.40;5.00;;;;;;;26.41;45.07;100467.63;5058408;28;20201;-80
2021/07/27 11:06:41;;;;;;;5.43;4.93;;;;;;;26.44;45.45;100460.91;5058074;28;20248;-80
2021/07/27 11:09:11;;;;;;;5.55;5.05;;;;;;;26.50;45.12;100460.09;5057707;28;20205;-79
2021/07/27 11:11:46;;;;;;;5.72;5.22;;;;;;;26.58;45.31;100462.63;5057860;28;20205;-79
2021/07/27 11:14:21;;;;;;;6.05;5.35;;;;;;;26.62;44.42;100453.81;5058650;28;20573;-80
2021/07/27 11:16:48;;;;;;;5.65;5.13;;;;;;;26.63;44.84;100458.25;5058080;28;20237;-80
2021/07/27 11:19:27;;;;;;;5.63;4.97;;;;;;;26.72;44.38;100458.88;5058416;28;20204;-80
2021/07/27 11:21:59;;;;;;;6.38;4.90;;;;;;;26.82;44.48;100458.50;5051907;28;20229;-80
2021/07/27 11:24:27;;;;;;;5.22;4.53;;;;;;;26.94;44.99;100457.69;5058219;28;20201;-80
2021/07/27 11:26:56;;;;;;;5.00;4.60;;;;;;;27.08;44.51;100454.97;5050188;28;20597;-80
2021/07/27 11:29:22;;;;;;;5.45;4.80;;;;;;;27.14;43.90;100446.78;5058713;28;20591;-80
2021/07/27 11:31:50;;;;;;;8.05;5.03;;;;;;;27.18;43.12;100449.94;5049481;28;20219;-80
2021/07/27 11:34:27;;;;;;;5.20;4.75;;;;;;;27.17;43.30;100453.72;5054701;28;20225;-80
2021/07/27 11:36:54;;;;;;;5.90;5.10;;;;;;;27.16;43.42;100452.88;5058030;28;20598;-80
2021/07/27 11:39:21;;;;;;;5.68;5.10;;;;;;;27.15;43.34;100456.66;5058162;28;20223;-80
2021/07/27 11:42:02;;;;;;;5.28;4.65;;;;;;;27.19;43.74;100454.34;5058526;28;20295;-80
2021/07/27 11:44:29;;;;;;;5.70;5.20;;;;;;;27.26;43.58;100455.19;5059227;28;20216;-79